Terminal Aerodrome Forecast
Issued by NWS

Home | Current Version | Previous Version | Text Only | Print | Product List | Glossary Off
Versions: 1 2 3 4 5 6 7 8 9 10 11 12 13 14

000
FTUS43 KGRB 301127
TAFCWA
TAF
KCWA 301127Z 3012/0112 33007KT P6SM BKN012
      TEMPO 3012/3014 BKN006
     FM301500 35009KT P6SM SCT015 BKN025
     FM301800 35010KT P6SM BKN035
     FM302200 36005KT P6SM SCT040
     FM010200 VRB03KT P6SM SKC
      AMD NOT SKED=

USA.gov is the U.S. government's official web portal to all federal, state and local government web resources and services.